Aérodrome :
LOGIN :

S'inscrire | Disclaimer

   EN    FR    IT 

 










Légende :    VFR   VFR Marginal   IFR   IFR Intensif   IFR Très Intensif
Visi : 
Plafond : 
>= 8 km
>= 3000ft
5 à 8 km
1000 à 3000 ft
1500m à 5 km
500 à 1000 ft
800 à 1500m
200 à 500 ft
< 800m
< 200 ft
Symboles :   Orages  Brouillard  Fortes neiges  Fortes précipitations  Vent > 20 kt
SIGMETs :   Divers  Orages  Givrage  Turbulence  Onde Orograph.  Cendres Volcan.







- Altitude de l'aérodrome : 138 ft
- Code IATA : BIO


LEBB - Bilbao

DERNIER METAR :
  • 191430Z VRB01KT 9999 FEW022 14/08 Q1021 NOSIG

METARs EXPIRÉS :
  • 191400Z VRB01KT 9999 FEW022 13/08 Q1021 NOSIG
  • 191330Z 07003KT 020V110 9999 SCT022 12/08 Q1021 NOSIG
  • 191300Z VRB01KT 9999 FEW008 SCT014 BKN022 12/08 Q1022 NOSIG
  • 191230Z 00000KT 9999 FEW008 SCT014 BKN022 12/09 Q1022 NOSIG
  • 191200Z 00000KT 9999 FEW008 SCT016 BKN022 11/08 Q1023 NOSIG

TAF TAF LEBB
Valide du 19 à 12h jusqu'au 20 à 12h UTC


191100Z 1912/2012 33007KT 9999 SCT020 BKN040 TX14/1914Z TN05/2006Z
PROB40
TEMPO 1912/1913 BKN010
PROB40
TEMPO 1920/2003 3000 BR
TEMPO 2003/2012 19010KT
Pas de NOTAMs connus pour ce terrain.
3 SIGMETs publiés pour la FIR Madrid (LECM) :
 
Orages noyés dans la masse
LECM SIGMET 5 VALID 191454/191700 LEVA
LECM MADRID FIR/UIR EMBD TS OBS AT 1454Z WI N3826 W00702 - N3731 W00715 - N3755 W00203 - N3846 W00248 - N3826 W00702 TOP FL200 STNR NC=
Turbulence forte
LECM SIGMET 4 VALID 191600/192000 LEVA
LECM MADRID FIR/UIR SEV TURB FCST WI N4315 W00130 - N3827 W00347 - N3828 W00525 - N4406 W00326 - N4315 W00130 FL150/300 STNR NC=
Turbulence forte
LECM SIGMET 3 VALID 191200/191600 LEVA
LECM MADRID FIR/UIR SEV TURB FCST WI N4413 W00338 - N4029 W00548 - N3904 W00436 - N3853 W00340 - N4318 W00128 - N4413 W00338 FL150/310 STNR NC=



MET'MAP, la Météo Aéronautique d'un coup d'oeil ! - Copyright ORBIFLY Décembre 2007 - Disclaimer

ORBIFLY MET'MAP TEAM :

Programmation & Développement : Alexandra Zaïnal
Conception & Développement : Baudouin d'Aumeries
Co-Programmation & Développement : Marc-Olivier Méhu
Soutien technique & logistique : Manuel Goepfert

Contact : metmap@orbifly.com




SOURCES & CREDITS :

   NOAA